首页
METAR-TAF:

METAR-TAF

机场 :

聖皮埃爾機場

圣皮埃尔, 留尼汪岛

纬度: 21-20S, 经度: 055-29E, 海拔: 52米

当前天气观测

该预报发布于40分钟前的02:00 UTC
风速12节,风向
温度 20°C
湿度 83%
气压 1021 hPa
能见度10公里或以上
少量云层高于1200英尺
多云层高于5800英尺
多云层高于6800英尺

METAR: FMEP 220200Z AUTO 09012KT 9999 FEW012 BKN058 BKN068 20/17 Q1021

时间: 06:40 (02:40 UTC)

预报

该预报发布于40分钟前的02:00 UTC
预报有效从22日的 03点(UTC)到 22日的 12点(UTC)
风速10节,风向东转东南
能见度10公里或以上
少量云层高于2000英尺
散云层高于6000英尺
短暂存在
从 22日的 03点(UTC)到 22日的 06点(UTC)
能見度: 4500
多云层高于1000英尺
阵雨
短暂存在
从 22日的 05点(UTC)到 22日的 12点(UTC)
风速20节,风向东南,有时为30节阵风

TAF: FMEP 220200Z 2203/2212 11010KT 9999 FEW020 SCT060 TEMPO 2203/2206 4500 SHRA BKN010 TEMPO 2205/2212 14020G30KT

超过4000个机场的气象观测和天气预报(METAR&TAF报告)。

可查询的气象台以黄色和红色小点在地图上表示。

将鼠标移到小点上方,可查看气象台名称。

然后点击查看天气观测和预报。

如需切换地图:点击带黑十字的绿色按钮放大地图;点击带横线的绿色按钮缩小地图;或者点击绿色箭头查看邻近地区的地图。


METAR-TAF: